Time;durP1;ratioP1;P1;durP2;ratioP2;P2;SDS_P1;SDS_P2;PMS_P1;PMS_P2;Temp;Humidity;BMP_temperature;BMP_pressure;BME280_temperature;BME280_humidity;BME280_pressure;Samples;Min_cycle;Max_cycle;Signal;HPM_P1;HPM_P2
2020/12/28 00:02:19;;;;;;;55.92;26.70;;;;;;;2.27;100.00;99021.22;5070389;28;20107;-68
2020/12/28 00:04:45;;;;;;;47.35;27.13;;;;;;;2.29;100.00;99020.13;5070453;28;20062;-68
2020/12/28 00:07:14;;;;;;;49.30;27.92;;;;;;;2.20;100.00;99004.94;5070330;28;20040;-68
2020/12/28 00:09:40;;;;;;;49.28;27.20;;;;;;;2.25;100.00;99005.47;5070246;28;20543;-69
2020/12/28 00:12:06;;;;;;;46.70;25.88;;;;;;;2.25;100.00;99000.19;5069183;28;20122;-69
2020/12/28 00:14:31;;;;;;;47.40;26.38;;;;;;;2.35;100.00;99011.75;5070300;28;20028;-68
2020/12/28 00:16:57;;;;;;;43.65;25.55;;;;;;;2.20;100.00;98982.97;5070272;28;20024;-68
2020/12/28 00:19:22;;;;;;;47.35;26.55;;;;;;;2.35;100.00;99005.59;5070049;28;20024;-69
2020/12/28 00:21:48;;;;;;;49.45;26.10;;;;;;;2.38;100.00;99004.56;5068933;28;20077;-68
2020/12/28 00:24:13;;;;;;;42.40;24.73;;;;;;;2.31;100.00;98998.88;5070293;28;20063;-68
2020/12/28 00:26:41;;;;;;;46.08;24.65;;;;;;;2.34;100.00;99006.56;5070155;28;20030;-69
2020/12/28 00:29:07;;;;;;;49.70;26.92;;;;;;;2.32;100.00;98998.75;5070138;28;20029;-68
2020/12/28 00:31:33;;;;;;;41.10;25.80;;;;;;;2.24;100.00;98977.34;5070096;28;20039;-69
2020/12/28 00:34:00;;;;;;;46.00;26.13;;;;;;;2.31;100.00;98986.50;5069931;28;20031;-68
2020/12/28 00:36:25;;;;;;;50.38;26.90;;;;;;;2.14;100.00;98970.22;5069329;28;20028;-68
2020/12/28 00:38:51;;;;;;;46.33;25.90;;;;;;;2.29;100.00;98990.22;5083259;28;20028;-68
2020/12/28 00:41:16;;;;;;;45.53;26.17;;;;;;;2.24;100.00;98976.50;5089455;28;20027;-68
2020/12/28 00:43:43;;;;;;;47.10;26.23;;;;;;;2.20;100.00;98956.53;5089466;28;20024;-68
2020/12/28 00:46:09;;;;;;;50.70;26.45;;;;;;;2.31;100.00;98978.56;5089303;28;20024;-68
2020/12/28 00:48:35;;;;;;;48.75;26.58;;;;;;;2.30;100.00;98971.56;5089601;28;20032;-67
2020/12/28 00:51:01;;;;;;;39.95;24.15;;;;;;;2.38;100.00;98966.56;5089806;28;20035;-68
2020/12/28 00:53:28;;;;;;;48.63;26.88;;;;;;;2.38;100.00;98957.75;5089797;28;20023;-68
2020/12/28 00:55:53;;;;;;;47.30;25.88;;;;;;;2.27;100.00;98940.09;5089750;28;20016;-68
2020/12/28 00:58:19;;;;;;;46.95;24.50;;;;;;;2.33;100.00;98955.47;5089677;28;20368;-68
2020/12/28 01:00:44;;;;;;;45.55;24.77;;;;;;;2.28;100.00;98940.91;5089749;28;20020;-67
2020/12/28 01:03:09;;;;;;;48.97;24.98;;;;;;;2.29;100.00;98942.63;5089655;28;20028;-67
2020/12/28 01:05:35;;;;;;;44.22;24.55;;;;;;;2.30;100.00;98931.06;5089696;28;20036;-67
2020/12/28 01:08:00;;;;;;;44.30;24.67;;;;;;;2.24;100.00;98919.16;5089914;28;20036;-67
2020/12/28 01:10:26;;;;;;;43.00;24.42;;;;;;;2.28;100.00;98919.75;5089255;28;20048;-67
2020/12/28 01:12:51;;;;;;;44.58;24.65;;;;;;;2.20;100.00;98908.94;5088570;28;20376;-68
2020/12/28 01:15:17;;;;;;;47.40;24.42;;;;;;;2.25;100.00;98912.06;5089531;28;20034;-67
2020/12/28 01:17:42;;;;;;;42.00;22.98;;;;;;;2.30;100.00;98909.91;5089659;28;20042;-66
2020/12/28 01:20:07;;;;;;;39.72;23.35;;;;;;;2.29;100.00;98910.88;5089745;28;20024;-67
2020/12/28 01:22:33;;;;;;;44.08;24.67;;;;;;;2.25;100.00;98888.25;5089604;28;20027;-67
2020/12/28 01:24:58;;;;;;;43.80;24.77;;;;;;;2.30;100.00;98896.69;5089703;28;20055;-67
2020/12/28 01:27:24;;;;;;;43.08;24.80;;;;;;;2.25;100.00;98878.53;5089414;28;20044;-67
2020/12/28 01:29:49;;;;;;;45.67;24.25;;;;;;;2.27;100.00;98876.63;5089340;28;20117;-67
2020/12/28 01:32:14;;;;;;;41.20;23.73;;;;;;;2.24;100.00;98868.91;5089326;28;20027;-67
2020/12/28 01:34:40;;;;;;;44.40;24.90;;;;;;;2.20;100.00;98862.16;5089690;28;20505;-67
2020/12/28 01:37:05;;;;;;;49.33;24.30;;;;;;;2.20;100.00;98877.19;5089264;28;20042;-67
2020/12/28 01:39:31;;;;;;;46.35;24.02;;;;;;;2.21;100.00;98863.00;5089443;28;20016;-66
2020/12/28 01:41:57;;;;;;;46.40;24.52;;;;;;;2.21;100.00;98860.38;5089527;28;20148;-66
2020/12/28 01:44:22;;;;;;;47.00;24.83;;;;;;;2.21;100.00;98850.63;5089485;28;20036;-66
2020/12/28 01:46:48;;;;;;;45.85;24.60;;;;;;;2.17;100.00;98827.19;5090665;28;20530;-66
2020/12/28 01:49:13;;;;;;;40.70;23.00;;;;;;;2.17;100.00;98838.59;5093153;28;20533;-67
2020/12/28 01:51:43;;;;;;;42.22;23.02;;;;;;;2.17;100.00;98835.13;5093474;28;20028;-67
2020/12/28 01:54:10;;;;;;;38.58;22.17;;;;;;;2.18;100.00;98839.44;5093265;28;20489;-67
2020/12/28 01:56:37;;;;;;;43.38;23.02;;;;;;;2.08;100.00;98823.47;5093175;28;20028;-67
2020/12/28 01:59:03;;;;;;;43.28;24.48;;;;;;;2.12;100.00;98829.34;5093277;28;20036;-67
2020/12/28 02:01:34;;;;;;;42.25;22.88;;;;;;;2.17;100.00;98841.22;5092993;28;20043;-66
2020/12/28 02:03:59;;;;;;;46.97;23.35;;;;;;;2.18;100.00;98852.66;5093325;28;20032;-66
2020/12/28 02:06:25;;;;;;;41.20;22.73;;;;;;;2.12;100.00;98846.06;5092853;28;20424;-66
2020/12/28 02:08:50;;;;;;;40.78;23.48;;;;;;;2.07;100.00;98832.31;5093002;28;20042;-66
2020/12/28 02:11:16;;;;;;;43.33;22.05;;;;;;;2.07;100.00;98832.31;5092706;28;20382;-66
2020/12/28 02:13:41;;;;;;;42.13;22.33;;;;;;;2.06;100.00;98822.72;5092996;28;20032;-66
2020/12/28 02:16:07;;;;;;;41.85;22.38;;;;;;;2.06;100.00;98812.16;5092901;28;20034;-66
2020/12/28 02:18:32;;;;;;;45.20;24.33;;;;;;;1.98;100.00;98797.84;5091579;28;20024;-66
2020/12/28 02:20:57;;;;;;;40.78;21.67;;;;;;;1.98;100.00;98800.50;5093184;28;20481;-66
2020/12/28 02:23:23;;;;;;;43.28;22.65;;;;;;;2.02;100.00;98800.13;5092691;28;20027;-66
2020/12/28 02:25:48;;;;;;;42.58;23.42;;;;;;;1.91;100.00;98804.56;5092665;28;20382;-66
2020/12/28 02:28:14;;;;;;;38.25;21.80;;;;;;;1.98;100.00;98811.91;5092439;28;20032;-66
2020/12/28 02:30:39;;;;;;;43.60;23.42;;;;;;;2.02;100.00;98817.78;5092994;28;20024;-66
2020/12/28 02:33:04;;;;;;;46.78;23.00;;;;;;;1.97;100.00;98815.50;5092439;28;20028;-66
2020/12/28 02:35:30;;;;;;;39.83;21.70;;;;;;;1.95;100.00;98812.16;5092640;28;20028;-66
2020/12/28 02:37:55;;;;;;;40.60;23.05;;;;;;;1.97;100.00;98812.03;5092487;28;20036;-66
2020/12/28 02:40:21;;;;;;;39.53;21.73;;;;;;;1.94;100.00;98810.44;5092174;28;20039;-66
2020/12/28 02:42:46;;;;;;;41.88;21.65;;;;;;;1.93;100.00;98806.13;5092403;28;20106;-67
2020/12/28 02:45:12;;;;;;;38.10;20.38;;;;;;;1.96;100.00;98811.19;5092343;28;20032;-67
2020/12/28 02:47:37;;;;;;;38.58;21.77;;;;;;;1.92;100.00;98806.25;5090961;28;20034;-66
2020/12/28 02:50:03;;;;;;;35.38;19.50;;;;;;;1.80;100.00;98788.69;5092090;28;20024;-67
2020/12/28 02:52:28;;;;;;;35.25;19.58;;;;;;;1.89;100.00;98798.53;5092222;28;20055;-65
2020/12/28 02:54:54;;;;;;;37.78;19.80;;;;;;;1.91;100.00;98788.72;5092288;28;20085;-65
2020/12/28 02:57:19;;;;;;;35.55;20.40;;;;;;;1.93;100.00;98778.84;5091969;28;20024;-65
2020/12/28 02:59:44;;;;;;;35.30;19.55;;;;;;;1.97;100.00;98765.28;5091421;28;20023;-64
2020/12/28 03:02:10;;;;;;;37.88;20.83;;;;;;;2.03;100.00;98770.09;5091991;28;20023;-64
2020/12/28 03:04:35;;;;;;;34.28;19.33;;;;;;;1.98;100.00;98744.97;5091894;28;20070;-64
2020/12/28 03:07:01;;;;;;;32.13;18.20;;;;;;;2.14;100.00;98761.31;5092057;28;20031;-64
2020/12/28 03:09:26;;;;;;;32.05;18.00;;;;;;;2.13;100.00;98741.97;5091554;28;20078;-64
2020/12/28 03:11:52;;;;;;;30.88;16.70;;;;;;;2.26;100.00;98757.72;5091794;28;20036;-64
2020/12/28 03:14:17;;;;;;;32.92;17.45;;;;;;;2.31;100.00;98763.47;5091547;28;20078;-64
2020/12/28 03:16:42;;;;;;;32.53;16.38;;;;;;;2.35;100.00;98736.66;5091947;28;20050;-66
2020/12/28 03:19:08;;;;;;;28.83;16.30;;;;;;;2.43;100.00;98733.41;5091625;28;20016;-66
2020/12/28 03:21:33;;;;;;;28.48;16.08;;;;;;;2.28;100.00;98709.03;5091533;28;20495;-66
2020/12/28 03:23:59;;;;;;;26.42;15.85;;;;;;;2.53;100.00;98755.53;5091696;28;20032;-66
2020/12/28 03:26:24;;;;;;;30.00;16.35;;;;;;;2.57;100.00;98764.88;5090162;28;20035;-67
2020/12/28 03:28:50;;;;;;;27.98;16.27;;;;;;;2.60;100.00;98750.56;5091597;28;20374;-67
2020/12/28 03:31:15;;;;;;;29.85;16.70;;;;;;;2.64;100.00;98752.03;5091135;28;20073;-67
2020/12/28 03:33:40;;;;;;;29.73;17.00;;;;;;;2.67;100.00;98742.00;5090191;28;20647;-67
2020/12/28 03:36:06;;;;;;;28.35;16.35;;;;;;;2.72;100.00;98750.44;5091296;28;20035;-67
2020/12/28 03:38:31;;;;;;;30.65;15.07;;;;;;;2.78;100.00;98763.19;5091411;28;20039;-67
2020/12/28 03:40:57;;;;;;;29.05;15.77;;;;;;;2.82;100.00;98764.59;5091504;28;20013;-67
2020/12/28 03:43:22;;;;;;;30.90;17.08;;;;;;;2.85;100.00;98758.22;5089666;28;20016;-67
2020/12/28 03:45:48;;;;;;;25.70;15.63;;;;;;;2.89;100.00;98754.34;5091444;28;20046;-67
2020/12/28 03:48:13;;;;;;;29.45;16.23;;;;;;;2.86;100.00;98744.00;5091173;28;20062;-67
2020/12/28 03:50:39;;;;;;;32.10;16.55;;;;;;;2.94;100.00;98746.88;5091003;28;20019;-67
2020/12/28 03:53:04;;;;;;;32.28;16.88;;;;;;;3.01;100.00;98756.00;5091064;28;20039;-67
2020/12/28 03:55:29;;;;;;;26.88;14.90;;;;;;;3.02;100.00;98747.06;5090835;28;20028;-68
2020/12/28 03:57:55;;;;;;;26.63;15.13;;;;;;;2.96;100.00;98731.72;5090999;28;20020;-67
2020/12/28 04:00:20;;;;;;;22.75;13.70;;;;;;;3.06;100.00;98735.28;5090729;28;20020;-68
2020/12/28 04:02:46;;;;;;;25.05;13.93;;;;;;;2.75;100.00;98685.81;5091043;28;20039;-69
2020/12/28 04:05:12;;;;;;;24.92;14.32;;;;;;;3.10;100.00;98731.41;5090778;28;20036;-68
2020/12/28 04:07:37;;;;;;;24.08;13.35;;;;;;;3.12;100.00;98745.34;5090759;28;20479;-68
2020/12/28 04:10:03;;;;;;;25.17;15.18;;;;;;;3.12;100.00;98743.53;5089844;28;20028;-68
2020/12/28 04:12:28;;;;;;;26.48;15.95;;;;;;;3.14;100.00;98743.41;5090840;28;20038;-68
2020/12/28 04:14:54;;;;;;;27.45;15.27;;;;;;;3.10;100.00;98753.44;5090979;28;20478;-68
2020/12/28 04:17:19;;;;;;;25.67;15.30;;;;;;;3.14;100.00;98757.50;5089223;28;20020;-68
2020/12/28 04:19:45;;;;;;;25.23;14.23;;;;;;;3.13;100.00;98758.47;5090637;28;20024;-68
2020/12/28 04:22:10;;;;;;;20.08;13.02;;;;;;;3.05;100.00;98745.03;5090433;28;20462;-69
2020/12/28 04:24:36;;;;;;;26.38;14.55;;;;;;;3.11;100.00;98760.41;5090393;28;20031;-69
2020/12/28 04:27:02;;;;;;;25.63;14.23;;;;;;;3.12;100.00;98753.28;5090356;28;20028;-69
2020/12/28 04:29:27;;;;;;;23.95;13.50;;;;;;;3.12;100.00;98742.69;5090002;28;20027;-69
2020/12/28 04:31:53;;;;;;;26.10;14.07;;;;;;;3.11;100.00;98739.22;5090212;28;20494;-69
2020/12/28 04:34:18;;;;;;;23.63;13.48;;;;;;;3.04;100.00;98730.13;5090072;28;20436;-69
2020/12/28 04:36:44;;;;;;;23.50;14.38;;;;;;;3.12;100.00;98740.03;5090313;28;20024;-69
2020/12/28 04:39:09;;;;;;;23.30;14.27;;;;;;;3.02;100.00;98718.78;5089992;28;20115;-69
2020/12/28 04:41:35;;;;;;;25.38;14.52;;;;;;;3.11;100.00;98730.44;5089979;28;20055;-69
2020/12/28 04:44:01;;;;;;;24.98;14.15;;;;;;;3.09;100.00;98732.38;5085645;28;20052;-69
2020/12/28 04:46:29;;;;;;;25.23;14.57;;;;;;;3.06;100.00;98722.03;5069479;28;20036;-68
2020/12/28 04:48:55;;;;;;;28.65;15.00;;;;;;;3.12;100.00;98730.31;5068805;28;20032;-69
2020/12/28 04:51:25;;;;;;;27.90;14.55;;;;;;;3.11;100.00;98725.13;5069610;28;20085;-69
2020/12/28 04:53:54;;;;;;;26.10;14.77;;;;;;;3.08;100.00;98731.53;5069875;28;20032;-69
2020/12/28 04:56:20;;;;;;;28.95;16.02;;;;;;;3.05;100.00;98736.22;5069308;28;20383;-69
2020/12/28 04:58:46;;;;;;;29.58;16.60;;;;;;;2.93;100.00;98713.44;5069721;28;20032;-66
2020/12/28 05:01:12;;;;;;;32.22;17.75;;;;;;;3.03;100.00;98740.84;5068772;28;20031;-66
2020/12/28 05:03:37;;;;;;;29.38;17.17;;;;;;;3.03;100.00;98738.19;5069254;28;20058;-66
2020/12/28 05:06:03;;;;;;;33.13;19.35;;;;;;;3.01;100.00;98725.06;5069093;28;20485;-66
2020/12/28 05:08:28;;;;;;;29.35;17.25;;;;;;;2.99;100.00;98710.25;5067599;28;20060;-66
2020/12/28 05:10:54;;;;;;;28.88;16.05;;;;;;;3.02;100.00;98721.44;5067400;28;20098;-66
2020/12/28 05:13:20;;;;;;;31.20;15.82;;;;;;;3.02;100.00;98715.31;5068879;28;20073;-66
2020/12/28 05:15:55;;;;;;;26.17;15.10;;;;;;;2.99;100.00;98721.69;5069286;28;20028;-65
2020/12/28 05:18:21;;;;;;;26.77;15.23;;;;;;;2.99;100.00;98731.44;5068905;28;20495;-65
2020/12/28 05:20:47;;;;;;;24.70;14.82;;;;;;;2.87;100.00;98713.94;5069284;28;20048;-66
2020/12/28 05:23:14;;;;;;;25.08;14.35;;;;;;;2.92;100.00;98739.06;5068737;28;20193;-65
2020/12/28 05:25:45;;;;;;;27.50;16.15;;;;;;;2.75;100.00;98728.16;5067281;28;20082;-65
2020/12/28 05:28:16;;;;;;;22.80;14.15;;;;;;;2.88;100.00;98753.53;5069333;28;20024;-66
2020/12/28 05:30:45;;;;;;;29.73;17.40;;;;;;;2.89;100.00;98756.97;5067801;28;20020;-66
2020/12/28 05:33:12;;;;;;;29.33;16.77;;;;;;;2.84;100.00;98751.25;5069005;28;20032;-65
2020/12/28 05:35:37;;;;;;;26.98;16.70;;;;;;;2.84;100.00;98749.41;5068917;28;20047;-66
2020/12/28 05:38:05;;;;;;;30.73;16.83;;;;;;;2.86;100.00;98749.28;5068938;28;20033;-66
2020/12/28 05:40:32;;;;;;;28.15;16.33;;;;;;;2.84;100.00;98743.31;5067933;28;20410;-65
2020/12/28 05:42:58;;;;;;;28.23;16.35;;;;;;;2.78;100.00;98738.50;5068883;28;20020;-65
2020/12/28 05:45:24;;;;;;;28.83;16.55;;;;;;;2.74;100.00;98732.59;5069043;28;20028;-68
2020/12/28 05:47:55;;;;;;;26.48;16.35;;;;;;;2.82;100.00;98751.38;5069357;28;20017;-69
2020/12/28 05:50:26;;;;;;;27.63;16.83;;;;;;;2.84;100.00;98757.34;5068950;28;20035;-69
2020/12/28 05:52:56;;;;;;;25.10;15.57;;;;;;;2.85;100.00;98750.28;5069175;28;20048;-68
2020/12/28 05:55:24;;;;;;;26.13;14.98;;;;;;;2.87;100.00;98754.47;5068627;28;20074;-69
2020/12/28 05:57:50;;;;;;;24.77;14.60;;;;;;;2.79;100.00;98740.16;5069343;28;20056;-69
2020/12/28 06:00:17;;;;;;;22.88;13.88;;;;;;;2.90;100.00;98756.03;5069322;28;20070;-69
2020/12/28 06:02:42;;;;;;;25.73;14.18;;;;;;;2.91;100.00;98753.28;5069144;28;20103;-69
2020/12/28 06:05:13;;;;;;;24.00;13.82;;;;;;;2.92;100.00;98754.09;5069072;28;20104;-69
2020/12/28 06:07:38;;;;;;;28.00;14.80;;;;;;;2.92;100.00;98756.75;5067795;28;20021;-69
2020/12/28 06:10:06;;;;;;;24.05;14.02;;;;;;;2.92;100.00;98748.78;5068646;28;20040;-69
2020/12/28 06:12:31;;;;;;;22.85;14.15;;;;;;;2.94;100.00;98752.16;5068683;28;20040;-69
2020/12/28 06:14:58;;;;;;;23.98;14.07;;;;;;;2.81;100.00;98739.09;5069057;28;20500;-69
2020/12/28 06:17:37;;;;;;;28.13;16.92;;;;;;;2.82;100.00;98735.47;5068569;28;20043;-69
2020/12/28 06:20:05;;;;;;;28.10;17.55;;;;;;;2.78;100.00;98733.22;5068778;28;20536;-69
2020/12/28 06:22:32;;;;;;;27.90;17.85;;;;;;;2.89;100.00;98751.69;5067492;28;20120;-69
2020/12/28 06:25:08;;;;;;;24.05;15.15;;;;;;;2.87;100.00;98749.16;5066721;28;20021;-69
2020/12/28 06:27:38;;;;;;;26.17;15.25;;;;;;;2.93;100.00;98758.44;5068045;28;20036;-68
2020/12/28 06:30:15;;;;;;;20.48;12.70;;;;;;;2.96;100.00;98768.78;5068716;28;20493;-68
2020/12/28 06:32:42;;;;;;;23.10;12.52;;;;;;;2.88;100.00;98750.03;5075387;28;20032;-69
2020/12/28 06:35:13;;;;;;;20.90;11.88;;;;;;;2.84;100.00;98749.41;5071899;28;20036;-69
2020/12/28 06:37:52;;;;;;;19.60;11.13;;;;;;;2.99;100.00;98774.66;5071953;28;20032;-69
2020/12/28 06:40:38;;;;;;;20.30;10.85;;;;;;;2.97;100.00;98796.94;5071634;28;20025;-69
2020/12/28 06:43:11;;;;;;;19.92;10.63;;;;;;;2.97;100.00;98789.00;5069799;28;20329;-69
2020/12/28 06:45:38;;;;;;;18.33;10.50;;;;;;;2.97;100.00;98786.34;5074874;28;20082;-69
2020/12/28 06:48:03;;;;;;;19.42;11.43;;;;;;;2.97;100.00;98794.28;5092552;28;20050;-68
2020/12/28 06:50:29;;;;;;;22.33;12.32;;;;;;;2.98;100.00;98809.19;5092363;28;20028;-68
2020/12/28 06:52:54;;;;;;;23.35;12.07;;;;;;;2.98;100.00;98794.16;5080934;28;20027;-66
2020/12/28 06:55:24;;;;;;;20.17;11.70;;;;;;;2.98;100.00;98798.59;5071059;28;20032;-67
2020/12/28 06:57:50;;;;;;;24.63;12.80;;;;;;;2.95;100.00;98804.16;5072129;28;20029;-67
2020/12/28 07:00:21;;;;;;;22.55;12.68;;;;;;;3.01;100.00;98819.53;5072099;28;20031;-66
2020/12/28 07:02:51;;;;;;;24.38;11.93;;;;;;;2.98;100.00;98815.34;5070166;28;20024;-68
2020/12/28 07:05:25;;;;;;;25.27;12.98;;;;;;;3.02;100.00;98813.28;5071019;28;20028;-68
2020/12/28 07:07:51;;;;;;;23.00;11.32;;;;;;;3.04;100.00;98816.66;5070367;28;20033;-68
2020/12/28 07:10:18;;;;;;;26.20;13.23;;;;;;;3.02;100.00;98822.06;5070887;28;20533;-68
2020/12/28 07:12:44;;;;;;;27.00;13.43;;;;;;;2.92;100.00;98809.69;5090614;28;20368;-68
2020/12/28 07:15:10;;;;;;;32.45;15.30;;;;;;;3.13;100.00;98834.44;5090731;28;20066;-68
2020/12/28 07:17:36;;;;;;;34.78;16.00;;;;;;;2.98;100.00;98823.28;5090466;28;20032;-68
2020/12/28 07:20:11;;;;;;;27.65;15.27;;;;;;;3.02;100.00;98837.94;5078275;28;20352;-68
2020/12/28 07:22:38;;;;;;;35.47;16.65;;;;;;;3.11;100.00;98849.59;5071568;28;20055;-68
2020/12/28 07:25:05;;;;;;;34.70;16.95;;;;;;;3.07;100.00;98829.63;5087045;28;20039;-68
2020/12/28 07:27:31;;;;;;;33.55;17.05;;;;;;;3.15;100.00;98849.22;5091366;28;20040;-68
2020/12/28 07:29:56;;;;;;;36.25;17.20;;;;;;;3.06;100.00;98841.22;5091595;28;20024;-68
2020/12/28 07:32:22;;;;;;;39.28;18.17;;;;;;;3.12;100.00;98851.28;5091561;28;20027;-67
2020/12/28 07:34:51;;;;;;;37.42;17.52;;;;;;;3.12;100.00;98845.97;5091300;28;20031;-68
2020/12/28 07:37:18;;;;;;;37.70;17.90;;;;;;;3.10;100.00;98851.44;5091323;28;20363;-68
2020/12/28 07:39:46;;;;;;;42.00;20.00;;;;;;;3.13;100.00;98848.50;5078267;28;20032;-67
2020/12/28 07:42:17;;;;;;;41.15;18.30;;;;;;;3.17;100.00;98859.72;5071111;28;20028;-65
2020/12/28 07:44:42;;;;;;;42.22;20.98;;;;;;;3.19;100.00;98866.56;5071037;28;20062;-65
2020/12/28 07:47:13;;;;;;;43.90;19.98;;;;;;;3.03;100.00;98830.88;5070924;28;20071;-65
2020/12/28 07:49:43;;;;;;;43.45;20.05;;;;;;;3.12;100.00;98838.88;5078364;28;20035;-65
2020/12/28 07:52:16;;;;;;;41.13;20.40;;;;;;;3.17;100.00;98854.41;5089807;28;20059;-65
2020/12/28 07:55:03;;;;;;;45.17;20.20;;;;;;;3.18;100.00;98848.13;5091194;28;20044;-66
2020/12/28 07:57:58;;;;;;;45.30;22.83;;;;;;;3.20;100.00;98860.31;5090865;28;20102;-65
2020/12/28 08:00:28;;;;;;;48.83;22.10;;;;;;;3.18;100.00;98854.28;5084138;28;20502;-67
2020/12/28 08:03:27;;;;;;;53.67;23.05;;;;;;;3.19;100.00;98852.50;5091141;28;20049;-67
2020/12/28 08:05:54;;;;;;;52.90;23.02;;;;;;;3.15;100.00;98843.94;5090967;28;20028;-67
2020/12/28 08:08:24;;;;;;;45.08;21.15;;;;;;;3.23;100.00;98851.28;5089359;28;20150;-67
2020/12/28 08:11:01;;;;;;;48.03;21.23;;;;;;;3.20;100.00;98859.47;5090503;28;20120;-67
2020/12/28 08:13:28;;;;;;;51.40;23.00;;;;;;;3.20;100.00;98859.47;5080696;28;20057;-67
2020/12/28 08:15:54;;;;;;;49.08;22.98;;;;;;;3.24;100.00;98869.69;5070794;28;20680;-67
2020/12/28 08:18:20;;;;;;;45.90;21.98;;;;;;;3.27;100.00;98863.28;5070088;28;20020;-67
2020/12/28 08:20:56;;;;;;;55.35;24.13;;;;;;;3.27;100.00;98866.78;5069224;28;20044;-67
2020/12/28 08:23:26;;;;;;;48.70;23.85;;;;;;;3.30;100.00;98868.34;5070500;28;20025;-67
2020/12/28 08:25:52;;;;;;;49.15;24.05;;;;;;;3.21;100.00;98855.84;5070346;28;20036;-67
2020/12/28 08:28:19;;;;;;;46.78;22.75;;;;;;;3.35;100.00;98882.06;5085583;28;20035;-67
2020/12/28 08:30:44;;;;;;;50.20;24.40;;;;;;;3.28;100.00;98862.31;5089031;28;20028;-67
2020/12/28 08:33:10;;;;;;;53.63;25.40;;;;;;;3.28;100.00;98870.25;5090369;28;20073;-67
2020/12/28 08:35:45;;;;;;;53.10;25.27;;;;;;;3.34;100.00;98877.72;5090494;28;20394;-67
2020/12/28 08:38:11;;;;;;;54.25;25.90;;;;;;;3.30;100.00;98879.78;5084976;28;20036;-67
2020/12/28 08:40:36;;;;;;;58.65;25.95;;;;;;;3.31;100.00;98883.25;5069112;28;20379;-67
2020/12/28 08:43:03;;;;;;;55.42;24.65;;;;;;;3.39;100.00;98888.78;5070027;28;20070;-67
2020/12/28 08:45:29;;;;;;;48.70;23.77;;;;;;;3.31;100.00;98864.72;5069804;28;20020;-67
2020/12/28 08:47:57;;;;;;;54.95;24.33;;;;;;;3.41;100.00;98881.53;5069642;28;20029;-67
2020/12/28 08:50:23;;;;;;;53.22;24.38;;;;;;;3.39;100.00;98878.19;5080888;28;20106;-67
2020/12/28 08:52:51;;;;;;;54.10;25.15;;;;;;;3.37;100.00;98872.16;5090440;28;20474;-66
2020/12/28 08:55:18;;;;;;;49.58;23.05;;;;;;;3.43;100.00;98882.28;5090305;28;20079;-67
2020/12/28 08:57:51;;;;;;;52.92;25.55;;;;;;;3.31;100.00;98859.41;5088314;28;20479;-67
2020/12/28 09:00:16;;;;;;;48.20;24.98;;;;;;;3.42;100.00;98876.13;5089905;28;20107;-67
2020/12/28 09:02:50;;;;;;;50.97;24.98;;;;;;;3.33;100.00;98861.00;5090084;28;20103;-65
2020/12/28 09:05:15;;;;;;;55.25;26.27;;;;;;;3.42;100.00;98878.78;5071582;28;20052;-65
2020/12/28 09:07:40;;;;;;;49.60;23.80;;;;;;;3.45;100.00;98877.69;5069826;28;20063;-65
2020/12/28 09:10:06;;;;;;;51.88;25.00;;;;;;;3.44;100.00;98868.03;5069504;28;20510;-66
2020/12/28 09:12:31;;;;;;;54.85;24.25;;;;;;;3.46;100.00;98855.53;5069323;28;20507;-65
2020/12/28 09:14:57;;;;;;;49.53;24.90;;;;;;;3.41;100.00;98836.50;5069755;28;20467;-65
2020/12/28 09:17:23;;;;;;;54.22;25.55;;;;;;;3.53;100.00;98862.00;5068280;28;20051;-65
2020/12/28 09:19:49;;;;;;;59.05;26.15;;;;;;;3.57;100.00;98866.06;5068252;28;20031;-65
2020/12/28 09:22:14;;;;;;;51.38;25.90;;;;;;;3.48;100.00;98846.47;5069503;28;20020;-67
2020/12/28 09:24:39;;;;;;;55.28;26.27;;;;;;;3.47;100.00;98839.50;5069474;28;20013;-67
2020/12/28 09:27:05;;;;;;;49.33;25.98;;;;;;;3.61;100.00;98844.50;5069432;28;20107;-66
2020/12/28 09:29:30;;;;;;;51.63;26.90;;;;;;;3.49;100.00;98831.44;5067379;28;20025;-67
2020/12/28 09:31:56;;;;;;;53.28;27.08;;;;;;;3.63;100.00;98849.66;5069548;28;20113;-67
2020/12/28 09:34:22;;;;;;;59.22;27.55;;;;;;;3.67;100.00;98845.78;5069866;28;20021;-67
2020/12/28 09:37:00;;;;;;;53.92;26.98;;;;;;;3.69;100.00;98838.56;5072684;28;20517;-66
2020/12/28 09:39:26;;;;;;;54.10;28.15;;;;;;;3.72;100.00;98833.84;5088740;28;20020;-67
2020/12/28 09:41:52;;;;;;;56.67;28.33;;;;;;;3.73;100.00;98824.91;5089508;28;20022;-67
2020/12/28 09:44:17;;;;;;;58.05;27.48;;;;;;;3.78;100.00;98824.53;5089628;28;20486;-67
2020/12/28 09:46:43;;;;;;;55.42;27.38;;;;;;;3.84;100.00;98824.84;5081815;28;20024;-67
2020/12/28 09:49:08;;;;;;;50.60;25.23;;;;;;;3.88;100.00;98823.66;5089797;28;20032;-67
2020/12/28 09:51:34;;;;;;;56.95;27.83;;;;;;;3.90;100.00;98821.69;5089347;28;20035;-67
2020/12/28 09:53:59;;;;;;;55.63;28.00;;;;;;;4.00;100.00;98829.72;5089724;28;20112;-65
2020/12/28 09:56:25;;;;;;;54.95;27.73;;;;;;;3.96;100.00;98820.31;5073452;28;20056;-65
2020/12/28 09:58:50;;;;;;;56.42;27.83;;;;;;;4.09;100.00;98844.81;5068145;28;20028;-65
2020/12/28 10:01:15;;;;;;;54.65;27.27;;;;;;;4.10;100.00;98838.56;5069198;28;20017;-65
2020/12/28 10:03:41;;;;;;;57.17;27.85;;;;;;;4.18;100.00;98826.34;5069145;28;20017;-65
2020/12/28 10:06:31;;;;;;;52.33;26.88;;;;;;;4.05;100.00;98793.03;5069546;28;20020;-65
2020/12/28 10:08:52;;;;;;;60.55;28.33;;;;;;;4.30;100.00;98819.97;5070090;28;20502;-65
2020/12/28 10:11:17;;;;;;;48.65;26.15;;;;;;;4.37;100.00;98809.66;5072822;28;20029;-67
2020/12/28 10:13:42;;;;;;;55.35;26.83;;;;;;;4.40;99.58;98812.06;5071823;28;20016;-67
2020/12/28 10:16:08;;;;;;;54.50;25.80;;;;;;;4.44;99.24;98794.88;5078580;28;20020;-67
2020/12/28 10:18:41;;;;;;;52.53;27.33;;;;;;;4.45;98.59;98780.66;5072981;28;20033;-67
2020/12/28 10:21:08;;;;;;;52.97;26.65;;;;;;;4.52;98.22;98785.28;5072849;28;20039;-67
2020/12/28 10:23:34;;;;;;;55.20;26.25;;;;;;;4.65;98.40;98790.38;5078785;28;20024;-67
2020/12/28 10:26:00;;;;;;;51.10;26.20;;;;;;;4.66;98.19;98773.44;5093208;28;20073;-67
2020/12/28 10:28:25;;;;;;;47.58;24.27;;;;;;;4.82;97.82;98784.41;5092954;28;20036;-66
2020/12/28 10:30:51;;;;;;;49.83;26.05;;;;;;;4.87;97.40;98792.78;5088920;28;20487;-67
2020/12/28 10:33:16;;;;;;;53.58;24.73;;;;;;;4.88;97.57;98775.88;5072564;28;20364;-67
2020/12/28 10:35:42;;;;;;;46.28;25.38;;;;;;;4.97;97.24;98784.84;5072485;28;20031;-67
2020/12/28 10:38:08;;;;;;;47.28;23.27;;;;;;;5.02;96.79;98796.72;5072243;28;20073;-67
2020/12/28 10:40:36;;;;;;;46.08;24.92;;;;;;;5.08;96.94;98793.53;5089152;28;20035;-67
2020/12/28 10:43:01;;;;;;;43.83;22.77;;;;;;;5.15;96.63;98783.19;5091539;28;20038;-67
2020/12/28 10:45:27;;;;;;;50.63;24.27;;;;;;;5.15;95.94;98778.72;5084758;28;20475;-66
2020/12/28 10:47:52;;;;;;;52.38;25.77;;;;;;;5.22;96.04;98781.69;5072485;28;20031;-67
2020/12/28 10:50:18;;;;;;;47.95;24.13;;;;;;;5.29;95.90;98780.13;5071833;28;20110;-67
2020/12/28 10:52:46;;;;;;;46.40;24.73;;;;;;;5.24;96.16;98759.28;5071794;28;20063;-67
2020/12/28 10:55:12;;;;;;;41.83;23.45;;;;;;;5.25;95.59;98739.69;5071438;28;20028;-67
2020/12/28 10:57:37;;;;;;;48.08;24.77;;;;;;;5.23;95.70;98717.75;5071382;28;20031;-66
2020/12/28 11:00:04;;;;;;;46.17;23.80;;;;;;;5.30;95.34;98721.53;5085718;28;20095;-66
2020/12/28 11:02:29;;;;;;;45.67;23.73;;;;;;;5.41;94.72;98747.09;5083564;28;20024;-66
2020/12/28 11:04:54;;;;;;;43.10;24.05;;;;;;;5.42;94.71;98715.06;5082539;28;20097;-66
2020/12/28 11:07:20;;;;;;;47.80;23.67;;;;;;;5.39;94.35;98719.84;5091899;28;20069;-67
2020/12/28 11:09:45;;;;;;;47.78;23.17;;;;;;;5.46;94.22;98729.78;5077616;28;20166;-67
2020/12/28 11:12:11;;;;;;;49.05;23.30;;;;;;;5.48;94.76;98706.53;5082554;28;20092;-67
2020/12/28 11:14:36;;;;;;;47.28;23.52;;;;;;;5.44;94.47;98712.25;5089573;28;20024;-66
2020/12/28 11:17:03;;;;;;;52.95;26.95;;;;;;;5.51;94.48;98729.34;5071794;28;20067;-67